createdAt,value
2017-10-19T00:00:04.942Z,1011.81
2017-10-19T00:01:04.937Z,1011.84
2017-10-19T00:02:04.939Z,1011.86
2017-10-19T00:03:04.944Z,1011.84
2017-10-19T00:04:04.951Z,1011.90
2017-10-19T00:05:04.947Z,1011.86
2017-10-19T00:06:04.947Z,1011.86
2017-10-19T00:07:04.947Z,1011.88
2017-10-19T00:08:04.947Z,1011.86
2017-10-19T00:09:04.954Z,1011.91
2017-10-19T00:10:04.953Z,1011.87
2017-10-19T00:11:04.958Z,1011.84
2017-10-19T00:12:04.958Z,1011.85
2017-10-19T00:13:04.956Z,1011.88
2017-10-19T00:14:04.967Z,1011.87
2017-10-19T00:15:04.969Z,1011.88
2017-10-19T00:16:04.964Z,1011.92
2017-10-19T00:17:04.963Z,1011.97
2017-10-19T00:18:04.963Z,1012.01
2017-10-19T00:19:04.963Z,1012.02
2017-10-19T00:20:04.973Z,1012.00
2017-10-19T00:21:04.967Z,1012.03
2017-10-19T00:22:04.972Z,1011.96
2017-10-19T00:23:04.974Z,1011.99
2017-10-19T00:24:04.973Z,1011.98
2017-10-19T00:25:04.973Z,1011.96
2017-10-19T00:26:04.973Z,1011.97
2017-10-19T00:27:04.980Z,1011.93
2017-10-19T00:28:04.976Z,1011.94
2017-10-19T00:29:04.983Z,1011.95
2017-10-19T00:30:04.981Z,1011.96
2017-10-19T00:31:04.984Z,1011.97
2017-10-19T00:32:04.984Z,1011.98
2017-10-19T00:33:04.994Z,1011.97
2017-10-19T00:34:04.989Z,1011.96
2017-10-19T00:35:04.992Z,1011.97
2017-10-19T00:36:04.996Z,1011.95
2017-10-19T00:37:04.993Z,1011.95
2017-10-19T00:38:04.993Z,1011.92
2017-10-19T00:39:04.996Z,1011.94
2017-10-19T00:40:04.993Z,1011.93
2017-10-19T00:41:04.997Z,1011.92
2017-10-19T00:42:05.003Z,1011.86
2017-10-19T00:43:05.000Z,1011.88
2017-10-19T00:44:05.002Z,1011.85
2017-10-19T00:45:05.002Z,1011.89
2017-10-19T00:46:05.006Z,1011.87
2017-10-19T00:47:05.016Z,1011.85
2017-10-19T00:48:05.008Z,1011.85
2017-10-19T00:49:05.007Z,1011.82
2017-10-19T00:50:05.009Z,1011.84
2017-10-19T00:51:05.011Z,1011.84
2017-10-19T00:52:05.020Z,1011.78
2017-10-19T00:53:05.015Z,1011.78
2017-10-19T00:54:05.019Z,1011.80
2017-10-19T00:55:05.017Z,1011.80
2017-10-19T00:56:05.019Z,1011.80
2017-10-19T00:57:05.029Z,1011.78
2017-10-19T00:58:05.026Z,1011.81
2017-10-19T00:59:05.026Z,1011.83
2017-10-19T01:00:05.025Z,1011.85
2017-10-19T01:01:05.036Z,1011.78
2017-10-19T01:02:05.031Z,1011.83
2017-10-19T01:03:05.029Z,1011.81
2017-10-19T01:04:05.037Z,1011.80
2017-10-19T01:05:05.035Z,1011.83
2017-10-19T01:06:05.035Z,1011.80
2017-10-19T01:07:05.043Z,1011.81
2017-10-19T01:08:05.041Z,1011.83
2017-10-19T01:09:05.042Z,1011.81
2017-10-19T01:10:05.047Z,1011.80
2017-10-19T01:11:05.044Z,1011.79
2017-10-19T01:12:05.044Z,1011.80
2017-10-19T01:13:05.052Z,1011.78
2017-10-19T01:14:05.054Z,1011.75
2017-10-19T01:15:05.058Z,1011.74
2017-10-19T01:16:05.054Z,1011.77
2017-10-19T01:17:05.056Z,1011.75
2017-10-19T01:18:05.058Z,1011.73
2017-10-19T01:19:05.062Z,1011.76
2017-10-19T01:20:05.064Z,1011.73
2017-10-19T01:21:05.066Z,1011.75
2017-10-19T01:22:05.066Z,1011.74
2017-10-19T01:23:05.067Z,1011.72
2017-10-19T01:24:05.071Z,1011.78
2017-10-19T01:25:05.083Z,1011.77
2017-10-19T01:26:05.077Z,1011.76
2017-10-19T01:27:05.082Z,1011.74
2017-10-19T01:28:05.078Z,1011.73
2017-10-19T01:29:05.078Z,1011.75
2017-10-19T01:30:05.087Z,1011.75
2017-10-19T01:31:05.086Z,1011.76
2017-10-19T01:32:05.085Z,1011.74
2017-10-19T01:33:05.088Z,1011.77
2017-10-19T01:34:05.098Z,1011.74
2017-10-19T01:35:05.089Z,1011.74
2017-10-19T01:36:05.093Z,1011.73
2017-10-19T01:37:05.096Z,1011.73
2017-10-19T01:38:05.095Z,1011.73
2017-10-19T01:39:05.098Z,1011.74
2017-10-19T01:40:05.104Z,1011.75
2017-10-19T01:41:05.104Z,1011.76
2017-10-19T01:42:05.106Z,1011.75
2017-10-19T01:43:05.107Z,1011.78
2017-10-19T01:44:05.108Z,1011.78
2017-10-19T01:45:05.114Z,1011.77
2017-10-19T01:46:05.121Z,1011.76
2017-10-19T01:47:05.114Z,1011.76
2017-10-19T01:48:05.125Z,1011.73
2017-10-19T01:49:05.120Z,1011.77
2017-10-19T01:50:05.122Z,1011.75
2017-10-19T01:51:05.127Z,1011.78
2017-10-19T01:52:05.121Z,1011.73
2017-10-19T01:53:05.124Z,1011.74
2017-10-19T01:54:05.126Z,1011.74
2017-10-19T01:55:05.130Z,1011.73
2017-10-19T01:56:05.130Z,1011.72
2017-10-19T01:57:05.138Z,1011.74
2017-10-19T01:58:05.136Z,1011.71
2017-10-19T01:59:05.137Z,1011.71
2017-10-19T02:00:05.145Z,1011.72
2017-10-19T02:01:05.140Z,1011.72
2017-10-19T02:02:05.146Z,1011.71
2017-10-19T02:03:05.144Z,1011.71
2017-10-19T02:04:05.153Z,1011.71
2017-10-19T02:05:05.147Z,1011.69
2017-10-19T02:06:05.156Z,1011.69
2017-10-19T02:07:05.158Z,1011.68
2017-10-19T02:08:05.157Z,1011.69
2017-10-19T02:09:05.163Z,1011.69
2017-10-19T02:10:05.165Z,1011.70
2017-10-19T02:11:05.163Z,1011.71
2017-10-19T02:12:05.166Z,1011.68
2017-10-19T02:13:05.166Z,1011.67
2017-10-19T02:14:05.172Z,1011.67
2017-10-19T02:15:05.174Z,1011.66
2017-10-19T02:16:05.177Z,1011.65
2017-10-19T02:17:05.180Z,1011.65
2017-10-19T02:18:05.178Z,1011.66
2017-10-19T02:19:05.178Z,1011.69
2017-10-19T02:20:05.183Z,1011.71
2017-10-19T02:21:05.181Z,1011.74
2017-10-19T02:22:05.185Z,1011.75
2017-10-19T02:23:05.190Z,1011.80
2017-10-19T02:24:05.194Z,1011.78
2017-10-19T02:25:05.188Z,1011.78
2017-10-19T02:26:05.191Z,1011.77
2017-10-19T02:27:05.198Z,1011.82
2017-10-19T02:28:05.196Z,1011.82
2017-10-19T02:29:05.199Z,1011.81
2017-10-19T02:30:05.205Z,1011.79
2017-10-19T02:31:05.206Z,1011.80
2017-10-19T02:32:05.211Z,1011.81
2017-10-19T02:33:05.208Z,1011.77
2017-10-19T02:34:05.215Z,1011.73
2017-10-19T02:35:05.219Z,1011.74
2017-10-19T02:36:05.216Z,1011.74
2017-10-19T02:37:05.216Z,1011.75
2017-10-19T02:38:05.231Z,1011.76
2017-10-19T02:39:05.228Z,1011.75
2017-10-19T02:40:05.225Z,1011.77
2017-10-19T02:41:05.222Z,1011.81
2017-10-19T02:42:05.233Z,1011.78
2017-10-19T02:43:05.231Z,1011.77
2017-10-19T02:44:05.236Z,1011.76
2017-10-19T02:45:05.234Z,1011.75
2017-10-19T02:46:05.236Z,1011.77
2017-10-19T02:47:05.238Z,1011.74
2017-10-19T02:48:05.243Z,1011.74
2017-10-19T02:49:05.243Z,1011.72
2017-10-19T02:50:05.247Z,1011.72
2017-10-19T02:51:05.250Z,1011.72
2017-10-19T02:52:05.247Z,1011.73
2017-10-19T02:53:05.249Z,1011.76
2017-10-19T02:54:05.263Z,1011.73
2017-10-19T02:55:05.255Z,1011.75
2017-10-19T02:56:05.255Z,1011.80
2017-10-19T02:57:05.265Z,1011.81
2017-10-19T02:58:05.266Z,1011.79
2017-10-19T02:59:05.265Z,1011.78
2017-10-19T03:00:05.282Z,1011.77
2017-10-19T03:01:05.267Z,1011.80
2017-10-19T03:02:05.276Z,1011.79
2017-10-19T03:03:05.274Z,1011.80
2017-10-19T03:04:05.279Z,1011.81
2017-10-19T03:05:05.276Z,1011.83
2017-10-19T03:06:05.281Z,1011.81
2017-10-19T03:07:05.281Z,1011.77
2017-10-19T03:08:05.285Z,1011.78
2017-10-19T03:09:05.293Z,1011.76
2017-10-19T03:10:05.302Z,1011.78
2017-10-19T03:11:05.300Z,1011.77
2017-10-19T03:12:05.294Z,1011.72
2017-10-19T03:13:05.302Z,1011.76
2017-10-19T03:14:05.307Z,1011.69
2017-10-19T03:15:05.301Z,1011.74
2017-10-19T03:16:05.303Z,1011.71
2017-10-19T03:17:05.311Z,1011.69
2017-10-19T03:18:05.310Z,1011.72
2017-10-19T03:19:05.310Z,1011.73
2017-10-19T03:20:05.312Z,1011.72
2017-10-19T03:21:05.312Z,1011.74
2017-10-19T03:22:05.318Z,1011.75
2017-10-19T03:23:05.325Z,1011.73
2017-10-19T03:24:05.321Z,1011.70
2017-10-19T03:25:05.324Z,1011.73
2017-10-19T03:26:05.329Z,1011.71
2017-10-19T03:27:05.333Z,1011.72
2017-10-19T03:28:05.336Z,1011.68
2017-10-19T03:29:05.336Z,1011.70
2017-10-19T03:30:05.347Z,1011.72
2017-10-19T03:31:05.354Z,1011.73
2017-10-19T03:32:05.346Z,1011.78
2017-10-19T03:33:05.345Z,1011.73
2017-10-19T03:34:05.346Z,1011.70
2017-10-19T03:35:05.353Z,1011.72
2017-10-19T03:36:05.354Z,1011.73
2017-10-19T03:37:05.353Z,1011.72
2017-10-19T03:38:05.362Z,1011.73
2017-10-19T03:39:05.361Z,1011.71
2017-10-19T03:40:05.365Z,1011.70
2017-10-19T03:41:05.365Z,1011.72
2017-10-19T03:42:05.370Z,1011.74
2017-10-19T03:43:05.367Z,1011.68
2017-10-19T03:44:05.371Z,1011.75
2017-10-19T03:45:05.376Z,1011.78
2017-10-19T03:46:05.380Z,1011.76
2017-10-19T03:47:05.388Z,1011.80
2017-10-19T03:48:05.383Z,1011.82
2017-10-19T03:49:05.385Z,1011.83
2017-10-19T03:50:05.393Z,1011.81
2017-10-19T03:51:05.396Z,1011.81
2017-10-19T03:52:05.395Z,1011.79
2017-10-19T03:53:05.396Z,1011.78
2017-10-19T03:54:05.404Z,1011.78
2017-10-19T03:55:05.408Z,1011.79
2017-10-19T03:56:05.404Z,1011.74
2017-10-19T03:57:05.404Z,1011.79
2017-10-19T03:58:05.410Z,1011.75
2017-10-19T03:59:05.409Z,1011.74
2017-10-19T04:00:05.419Z,1011.74
2017-10-19T04:01:05.415Z,1011.72
2017-10-19T04:02:05.422Z,1011.70
2017-10-19T04:03:05.420Z,1011.67
2017-10-19T04:04:05.434Z,1011.69
2017-10-19T04:05:05.437Z,1011.71
2017-10-19T04:06:05.431Z,1011.67
2017-10-19T04:07:05.432Z,1011.67
2017-10-19T04:08:05.442Z,1011.72
2017-10-19T04:09:05.449Z,1011.68
2017-10-19T04:10:05.455Z,1011.68
2017-10-19T04:11:05.445Z,1011.67
2017-10-19T04:12:05.444Z,1011.70
2017-10-19T04:13:05.447Z,1011.69
2017-10-19T04:14:05.454Z,1011.65
2017-10-19T04:15:05.460Z,1011.59
2017-10-19T04:16:05.455Z,1011.62
2017-10-19T04:17:05.458Z,1011.58
2017-10-19T04:18:05.470Z,1011.53
2017-10-19T04:19:05.465Z,1011.56
2017-10-19T04:20:05.466Z,1011.58
2017-10-19T04:21:05.469Z,1011.50
2017-10-19T04:22:05.473Z,1011.54
2017-10-19T04:23:05.474Z,1011.55
2017-10-19T04:24:05.479Z,1011.53
2017-10-19T04:25:05.481Z,1011.53
2017-10-19T04:26:05.486Z,1011.58
2017-10-19T04:27:05.485Z,1011.54
2017-10-19T04:28:05.487Z,1011.50
2017-10-19T04:29:05.496Z,1011.49
2017-10-19T04:30:05.495Z,1011.50
2017-10-19T04:31:05.498Z,1011.46
2017-10-19T04:32:05.506Z,1011.45
2017-10-19T04:33:05.506Z,1011.40
2017-10-19T04:34:05.511Z,1011.41
2017-10-19T04:35:05.508Z,1011.40
2017-10-19T04:36:05.513Z,1011.40
2017-10-19T04:37:05.515Z,1011.41
2017-10-19T04:38:05.516Z,1011.43
2017-10-19T04:39:05.516Z,1011.41
2017-10-19T04:40:05.533Z,1011.41
2017-10-19T04:41:05.525Z,1011.41
2017-10-19T04:42:05.522Z,1011.43
2017-10-19T04:43:05.523Z,1011.44
2017-10-19T04:44:05.534Z,1011.39
2017-10-19T04:45:05.533Z,1011.42
2017-10-19T04:46:05.533Z,1011.39
2017-10-19T04:47:05.543Z,1011.37
2017-10-19T04:48:05.540Z,1011.40
2017-10-19T04:49:05.540Z,1011.37
2017-10-19T04:50:05.549Z,1011.38
2017-10-19T04:51:05.554Z,1011.42
2017-10-19T04:52:05.551Z,1011.44
2017-10-19T04:53:05.563Z,1011.43
2017-10-19T04:54:05.562Z,1011.43
2017-10-19T04:55:05.557Z,1011.43
2017-10-19T04:56:05.585Z,1011.40
2017-10-19T04:57:05.570Z,1011.40
2017-10-19T04:58:05.571Z,1011.38
2017-10-19T04:59:05.580Z,1011.37
2017-10-19T05:00:05.571Z,1011.35
2017-10-19T05:01:05.585Z,1011.35
2017-10-19T05:02:05.576Z,1011.42
2017-10-19T05:03:05.584Z,1011.35
2017-10-19T05:04:05.585Z,1011.38
2017-10-19T05:05:05.591Z,1011.37
2017-10-19T05:06:05.593Z,1011.44
2017-10-19T05:07:05.592Z,1011.46
2017-10-19T05:08:05.594Z,1011.42
2017-10-19T05:09:05.595Z,1011.48
2017-10-19T05:10:05.603Z,1011.47
2017-10-19T05:11:05.607Z,1011.48
2017-10-19T05:12:05.601Z,1011.48
2017-10-19T05:13:05.619Z,1011.51
2017-10-19T05:14:05.608Z,1011.52
2017-10-19T05:15:05.611Z,1011.48
2017-10-19T05:16:05.610Z,1011.49
2017-10-19T05:17:05.615Z,1011.46
2017-10-19T05:18:05.619Z,1011.47
2017-10-19T05:19:05.625Z,1011.48
2017-10-19T05:20:05.624Z,1011.49
2017-10-19T05:21:05.632Z,1011.49
2017-10-19T05:22:05.634Z,1011.52
2017-10-19T05:23:05.634Z,1011.51
2017-10-19T05:24:05.634Z,1011.52
2017-10-19T05:25:05.643Z,1011.55
2017-10-19T05:26:05.644Z,1011.55
2017-10-19T05:27:05.645Z,1011.57
2017-10-19T05:28:05.643Z,1011.57
2017-10-19T05:29:05.644Z,1011.59
2017-10-19T05:30:05.660Z,1011.56
2017-10-19T05:31:05.664Z,1011.55
2017-10-19T05:32:05.654Z,1011.54
2017-10-19T05:33:05.661Z,1011.54
2017-10-19T05:34:05.660Z,1011.50
2017-10-19T05:35:05.662Z,1011.58
2017-10-19T05:36:05.667Z,1011.55
2017-10-19T05:37:05.669Z,1011.58
2017-10-19T05:39:37.872Z,1011.60
2017-10-19T05:40:37.751Z,1011.59
2017-10-19T05:41:37.753Z,1011.60
2017-10-19T05:42:37.754Z,1011.58
2017-10-19T05:43:37.758Z,1011.55
2017-10-19T05:44:37.762Z,1011.52
2017-10-19T05:45:37.794Z,1011.57
2017-10-19T05:46:37.771Z,1011.55
2017-10-19T05:47:37.774Z,1011.52
2017-10-19T05:48:37.780Z,1011.53
2017-10-19T05:49:37.783Z,1011.58
2017-10-19T05:50:37.775Z,1011.55
2017-10-19T05:51:37.775Z,1011.54
2017-10-19T05:52:37.787Z,1011.54
2017-10-19T05:53:37.790Z,1011.54
2017-10-19T05:54:37.794Z,1011.58
2017-10-19T05:55:37.788Z,1011.54
2017-10-19T05:56:37.792Z,1011.57
2017-10-19T05:57:37.793Z,1011.56
2017-10-19T05:58:37.795Z,1011.55
2017-10-19T05:59:37.800Z,1011.54
2017-10-19T06:00:37.802Z,1011.58
2017-10-19T06:01:37.801Z,1011.57
2017-10-19T06:02:37.809Z,1011.56
2017-10-19T06:03:37.807Z,1011.55
2017-10-19T06:04:37.809Z,1011.58
2017-10-19T06:05:37.820Z,1011.63
2017-10-19T06:06:37.815Z,1011.63
2017-10-19T06:07:37.819Z,1011.63
2017-10-19T06:08:37.825Z,1011.62
2017-10-19T06:09:37.823Z,1011.63
2017-10-19T06:10:37.830Z,1011.65
2017-10-19T06:11:37.884Z,1011.61
2017-10-19T06:12:37.829Z,1011.63
2017-10-19T06:13:37.835Z,1011.63
2017-10-19T06:14:37.833Z,1011.60
2017-10-19T06:15:37.837Z,1011.61
2017-10-19T06:16:37.844Z,1011.61
2017-10-19T06:17:37.842Z,1011.65
2017-10-19T06:18:37.851Z,1011.65
2017-10-19T06:19:37.857Z,1011.61
2017-10-19T06:20:37.854Z,1011.62
2017-10-19T06:21:37.854Z,1011.63
2017-10-19T06:22:37.852Z,1011.65
2017-10-19T06:23:37.861Z,1011.66
2017-10-19T06:24:37.863Z,1011.67
2017-10-19T06:25:37.860Z,1011.72
2017-10-19T06:26:37.868Z,1011.69
2017-10-19T06:27:37.869Z,1011.70
2017-10-19T06:28:37.869Z,1011.66
2017-10-19T06:29:37.870Z,1011.69
2017-10-19T06:30:37.872Z,1011.69
2017-10-19T06:31:37.887Z,1011.72
2017-10-19T06:32:37.878Z,1011.74
2017-10-19T06:33:37.887Z,1011.75
2017-10-19T06:34:37.887Z,1011.73
2017-10-19T06:35:37.888Z,1011.74
2017-10-19T06:36:37.887Z,1011.70
2017-10-19T06:37:37.895Z,1011.71
2017-10-19T06:38:37.892Z,1011.75
2017-10-19T06:39:37.896Z,1011.72
2017-10-19T06:40:37.895Z,1011.73
2017-10-19T06:41:37.905Z,1011.71
2017-10-19T06:42:37.902Z,1011.74
2017-10-19T06:43:37.904Z,1011.69
2017-10-19T06:44:37.905Z,1011.67
2017-10-19T06:45:37.906Z,1011.67
2017-10-19T06:46:37.915Z,1011.67
2017-10-19T06:47:37.914Z,1011.68
2017-10-19T06:48:37.918Z,1011.65
2017-10-19T06:49:37.922Z,1011.67
2017-10-19T06:50:37.922Z,1011.66
2017-10-19T06:51:37.921Z,1011.68
2017-10-19T06:52:37.923Z,1011.71
2017-10-19T06:53:37.924Z,1011.70
2017-10-19T06:54:37.932Z,1011.74
2017-10-19T06:55:37.931Z,1011.75
2017-10-19T06:56:37.932Z,1011.78
2017-10-19T06:57:37.937Z,1011.77
2017-10-19T06:58:37.934Z,1011.82
2017-10-19T06:59:37.943Z,1011.79
2017-10-19T07:00:38.044Z,1011.76
2017-10-19T07:01:38.152Z,1011.74
2017-10-19T07:02:38.198Z,1011.79
2017-10-19T07:03:38.258Z,1011.77
2017-10-19T07:04:37.954Z,1011.79
2017-10-19T07:05:38.037Z,1011.80
2017-10-19T07:06:37.956Z,1011.77
2017-10-19T07:07:37.967Z,1011.80
2017-10-19T07:08:37.964Z,1011.79
2017-10-19T07:09:37.963Z,1011.79
2017-10-19T07:10:37.974Z,1011.82
2017-10-19T07:11:37.973Z,1011.77
2017-10-19T07:12:37.973Z,1011.79
2017-10-19T07:13:37.975Z,1011.81
2017-10-19T07:14:37.982Z,1011.79
2017-10-19T07:15:37.986Z,1011.83
2017-10-19T07:16:37.981Z,1011.78
2017-10-19T07:17:37.985Z,1011.84
2017-10-19T07:18:37.988Z,1011.81
2017-10-19T07:19:37.990Z,1011.86
2017-10-19T07:20:38.001Z,1011.86
2017-10-19T07:21:37.996Z,1011.86
2017-10-19T07:22:37.998Z,1011.87
2017-10-19T07:23:38.002Z,1011.89
2017-10-19T07:24:38.005Z,1011.91
2017-10-19T07:25:38.008Z,1011.89
2017-10-19T07:26:38.009Z,1011.92
2017-10-19T07:27:38.014Z,1011.92
2017-10-19T07:28:38.016Z,1011.88
2017-10-19T07:29:38.017Z,1011.87
2017-10-19T07:30:38.026Z,1011.86
2017-10-19T07:31:38.029Z,1011.82
2017-10-19T07:32:38.031Z,1011.80
2017-10-19T07:33:38.042Z,1011.78
2017-10-19T07:34:38.030Z,1011.80
2017-10-19T07:35:38.033Z,1011.78
2017-10-19T07:36:38.050Z,1011.77
2017-10-19T07:37:38.040Z,1011.80
2017-10-19T07:38:38.041Z,1011.78
2017-10-19T07:39:38.044Z,1011.79
2017-10-19T07:40:38.052Z,1011.78
2017-10-19T07:41:38.050Z,1011.83
2017-10-19T07:42:38.056Z,1011.79
2017-10-19T07:43:38.056Z,1011.83
2017-10-19T07:44:38.059Z,1011.82
2017-10-19T07:45:38.066Z,1011.80
2017-10-19T07:46:38.065Z,1011.83
2017-10-19T07:47:38.101Z,1011.91
2017-10-19T07:48:38.073Z,1011.87
2017-10-19T07:49:38.080Z,1011.90
2017-10-19T07:50:38.076Z,1011.95
2017-10-19T07:51:38.083Z,1011.90
2017-10-19T07:52:38.900Z,1011.91
2017-10-19T07:53:38.092Z,1011.86
2017-10-19T07:54:38.092Z,1011.84
2017-10-19T07:55:38.100Z,1011.86
2017-10-19T07:56:38.093Z,1011.82
2017-10-19T07:57:38.105Z,1011.84
2017-10-19T07:58:38.102Z,1011.83
2017-10-19T07:59:38.107Z,1011.79
2017-10-19T08:00:38.111Z,1011.80
2017-10-19T08:01:38.110Z,1011.80
2017-10-19T08:02:38.112Z,1011.82
2017-10-19T08:03:38.118Z,1011.85
2017-10-19T08:04:38.122Z,1011.80
2017-10-19T08:05:38.124Z,1011.84
2017-10-19T08:06:38.132Z,1011.85
2017-10-19T08:07:38.135Z,1011.82
2017-10-19T08:08:38.155Z,1011.85
2017-10-19T08:09:38.150Z,1011.84
2017-10-19T08:10:38.149Z,1011.89
2017-10-19T08:11:38.144Z,1011.84
2017-10-19T08:12:38.151Z,1011.86
2017-10-19T08:13:38.155Z,1011.84
2017-10-19T08:14:38.151Z,1011.86
2017-10-19T08:15:38.163Z,1011.83
2017-10-19T08:16:38.167Z,1011.85
2017-10-19T08:17:38.161Z,1011.79
2017-10-19T08:18:38.168Z,1011.82
2017-10-19T08:19:38.172Z,1011.79
2017-10-19T08:20:38.175Z,1011.78
2017-10-19T08:21:38.175Z,1011.74
2017-10-19T08:22:38.177Z,1011.81
2017-10-19T08:23:38.194Z,1011.81
2017-10-19T08:24:38.189Z,1011.81
2017-10-19T08:25:38.189Z,1011.84
2017-10-19T08:26:38.192Z,1011.86
2017-10-19T08:27:38.197Z,1011.87
2017-10-19T08:28:38.203Z,1011.85
2017-10-19T08:29:38.209Z,1011.90
2017-10-19T08:30:38.203Z,1011.88
2017-10-19T08:31:38.242Z,1011.89
2017-10-19T08:32:38.219Z,1011.94
2017-10-19T08:33:38.216Z,1011.90
2017-10-19T08:34:38.223Z,1011.90
2017-10-19T08:35:38.229Z,1011.90
2017-10-19T08:36:38.235Z,1011.90
2017-10-19T08:37:38.230Z,1011.92
2017-10-19T08:38:38.237Z,1011.88
2017-10-19T08:39:38.237Z,1011.88
2017-10-19T08:40:38.245Z,1011.93
2017-10-19T08:41:38.244Z,1011.90
2017-10-19T08:42:38.263Z,1011.91
2017-10-19T08:43:38.251Z,1011.92
2017-10-19T08:44:38.260Z,1011.89
2017-10-19T08:45:38.260Z,1011.89
2017-10-19T08:46:38.262Z,1011.89
2017-10-19T08:47:38.272Z,1011.92
2017-10-19T08:48:38.273Z,1011.90
2017-10-19T08:49:38.274Z,1011.90
2017-10-19T08:50:38.283Z,1011.92
2017-10-19T08:51:38.282Z,1011.89
2017-10-19T08:52:38.288Z,1011.85
2017-10-19T08:53:38.292Z,1011.87
2017-10-19T08:54:38.293Z,1011.90
2017-10-19T08:55:38.305Z,1011.87
2017-10-19T08:56:38.302Z,1011.86
2017-10-19T08:57:38.303Z,1011.89
2017-10-19T08:58:38.308Z,1011.86
2017-10-19T08:59:38.326Z,1011.85
2017-10-19T09:00:38.318Z,1011.83
2017-10-19T09:01:38.319Z,1011.77
2017-10-19T09:02:38.323Z,1011.76
2017-10-19T09:03:38.327Z,1011.74
2017-10-19T09:04:38.332Z,1011.79
2017-10-19T09:05:38.334Z,1011.74
2017-10-19T09:06:38.342Z,1011.73
2017-10-19T09:07:38.346Z,1011.71
2017-10-19T09:08:38.350Z,1011.72
2017-10-19T09:09:38.361Z,1011.71
2017-10-19T09:10:38.363Z,1011.75
2017-10-19T09:11:38.361Z,1011.72
2017-10-19T09:12:38.363Z,1011.72
2017-10-19T09:13:38.369Z,1011.69
2017-10-19T09:14:38.377Z,1011.70
2017-10-19T09:15:38.377Z,1011.69
2017-10-19T09:16:38.386Z,1011.67
2017-10-19T09:17:38.388Z,1011.65
2017-10-19T09:18:38.395Z,1011.72
2017-10-19T09:19:38.417Z,1011.69
2017-10-19T09:20:38.399Z,1011.67
2017-10-19T09:21:38.401Z,1011.67
2017-10-19T09:22:38.413Z,1011.62
2017-10-19T09:23:38.409Z,1011.59
2017-10-19T09:24:38.425Z,1011.64
2017-10-19T09:25:38.420Z,1011.59
2017-10-19T09:26:38.426Z,1011.61
2017-10-19T09:27:38.427Z,1011.65
2017-10-19T09:28:38.433Z,1011.65
2017-10-19T09:29:38.437Z,1011.60
2017-10-19T09:30:38.444Z,1011.60
2017-10-19T09:31:38.446Z,1011.61
2017-10-19T09:32:38.452Z,1011.64
2017-10-19T09:33:38.458Z,1011.62
2017-10-19T09:34:38.462Z,1011.62
2017-10-19T09:35:38.464Z,1011.61
2017-10-19T09:36:38.476Z,1011.61
2017-10-19T09:37:38.475Z,1011.62
2017-10-19T09:38:38.480Z,1011.56
2017-10-19T09:39:38.489Z,1011.57
2017-10-19T09:40:38.488Z,1011.55
2017-10-19T09:41:38.496Z,1011.56
2017-10-19T09:42:38.497Z,1011.55
2017-10-19T09:43:38.506Z,1011.54
2017-10-19T09:44:38.504Z,1011.53
2017-10-19T09:45:38.514Z,1011.51
2017-10-19T09:46:38.517Z,1011.50
2017-10-19T09:47:38.523Z,1011.51
2017-10-19T09:48:38.526Z,1011.47
2017-10-19T09:49:38.534Z,1011.48
2017-10-19T09:50:38.535Z,1011.45
2017-10-19T09:51:38.541Z,1011.45
2017-10-19T09:52:38.546Z,1011.43
2017-10-19T09:53:38.554Z,1011.49
2017-10-19T09:54:38.558Z,1011.40
2017-10-19T09:55:38.560Z,1011.43
2017-10-19T09:56:38.563Z,1011.37
2017-10-19T09:57:38.570Z,1011.40
2017-10-19T09:58:38.576Z,1011.40
2017-10-19T09:59:38.581Z,1011.43
2017-10-19T10:00:38.585Z,1011.42
2017-10-19T10:01:38.599Z,1011.43
2017-10-19T10:02:38.597Z,1011.48
2017-10-19T10:03:38.604Z,1011.44
2017-10-19T10:04:38.604Z,1011.44
2017-10-19T10:05:38.614Z,1011.43
2017-10-19T10:06:38.614Z,1011.42
2017-10-19T10:09:10.745Z,1011.45
2017-10-19T10:10:10.710Z,1011.47
2017-10-19T10:11:10.717Z,1011.51
2017-10-19T10:12:10.731Z,1011.54
2017-10-19T10:13:10.728Z,1011.49
2017-10-19T10:14:10.733Z,1011.53
2017-10-19T10:15:10.737Z,1011.52
2017-10-19T10:16:10.740Z,1011.54
2017-10-19T10:17:10.756Z,1011.54
2017-10-19T10:18:10.751Z,1011.56
2017-10-19T10:19:10.756Z,1011.57
2017-10-19T10:20:10.759Z,1011.51
2017-10-19T10:21:10.767Z,1011.63
2017-10-19T10:22:10.770Z,1011.57
2017-10-19T10:23:10.777Z,1011.54
2017-10-19T10:24:10.799Z,1011.56
2017-10-19T10:25:10.788Z,1011.57
2017-10-19T10:26:10.804Z,1011.56
2017-10-19T10:27:10.797Z,1011.54
2017-10-19T10:28:10.801Z,1011.57
2017-10-19T10:29:10.813Z,1011.59
2017-10-19T10:30:10.811Z,1011.58
2017-10-19T10:31:10.818Z,1011.62
2017-10-19T10:32:10.826Z,1011.61
2017-10-19T10:33:10.837Z,1011.61
2017-10-19T10:34:10.836Z,1011.61
2017-10-19T10:35:10.843Z,1011.58
2017-10-19T10:36:10.847Z,1011.56
2017-10-19T10:37:10.859Z,1011.57
2017-10-19T10:38:10.855Z,1011.57
2017-10-19T10:39:19.489Z,1011.55
2017-10-19T10:41:04.288Z,1011.51
2017-10-19T10:42:04.243Z,1011.52
2017-10-19T10:43:04.253Z,1011.55
2017-10-19T10:44:04.262Z,1011.55
2017-10-19T10:45:04.261Z,1011.51
2017-10-19T10:46:04.276Z,1011.50
2017-10-19T10:47:04.286Z,1011.56
2017-10-19T10:48:04.618Z,1011.51
2017-10-19T10:49:04.921Z,1011.58
2017-10-19T10:50:04.577Z,1011.56
2017-10-19T10:51:04.298Z,1011.57
2017-10-19T10:52:04.304Z,1011.62
2017-10-19T10:53:04.313Z,1011.58
2017-10-19T10:54:04.310Z,1011.61
2017-10-19T10:55:04.320Z,1011.62
2017-10-19T10:56:04.326Z,1011.56
2017-10-19T10:57:04.336Z,1011.61
2017-10-19T10:58:04.339Z,1011.61
2017-10-19T10:59:04.342Z,1011.59
2017-10-19T11:00:04.354Z,1011.63
2017-10-19T11:01:04.370Z,1011.59
2017-10-19T11:02:04.362Z,1011.60
2017-10-19T11:03:04.364Z,1011.56
2017-10-19T11:04:04.371Z,1011.62
2017-10-19T11:05:04.380Z,1011.58
2017-10-19T11:06:04.387Z,1011.60
2017-10-19T11:07:04.392Z,1011.58
2017-10-19T11:08:04.397Z,1011.60
2017-10-19T11:09:04.404Z,1011.55
2017-10-19T11:10:04.410Z,1011.56
2017-10-19T11:11:04.412Z,1011.55
2017-10-19T11:12:04.418Z,1011.57
2017-10-19T11:13:04.433Z,1011.56
2017-10-19T11:14:04.436Z,1011.55
2017-10-19T11:15:04.437Z,1011.60
2017-10-19T11:16:04.451Z,1011.56
2017-10-19T11:17:04.478Z,1011.57
2017-10-19T11:18:04.463Z,1011.55
2017-10-19T11:19:04.481Z,1011.55
2017-10-19T11:20:04.480Z,1011.54
2017-10-19T11:21:04.474Z,1011.54
2017-10-19T11:22:04.481Z,1011.54
2017-10-19T11:23:04.488Z,1011.53
2017-10-19T11:24:04.492Z,1011.53
2017-10-19T11:25:04.499Z,1011.53
2017-10-19T11:26:04.511Z,1011.49
2017-10-19T11:27:04.513Z,1011.52
2017-10-19T11:28:04.514Z,1011.49
2017-10-19T11:29:04.525Z,1011.50
2017-10-19T11:30:04.532Z,1011.49
2017-10-19T11:31:04.536Z,1011.47
2017-10-19T11:32:04.545Z,1011.48
2017-10-19T11:33:04.575Z,1011.49
2017-10-19T11:34:04.553Z,1011.47
2017-10-19T11:35:04.561Z,1011.43
2017-10-19T11:36:04.570Z,1011.41
2017-10-19T11:37:04.576Z,1011.40
2017-10-19T11:38:04.582Z,1011.39
2017-10-19T11:39:04.585Z,1011.37
2017-10-19T11:40:04.594Z,1011.36
2017-10-19T11:41:04.607Z,1011.34
2017-10-19T11:42:04.605Z,1011.34
2017-10-19T11:43:04.614Z,1011.32
2017-10-19T11:44:04.622Z,1011.29
2017-10-19T11:45:04.625Z,1011.28
2017-10-19T11:46:04.643Z,1011.29
2017-10-19T11:47:04.643Z,1011.26
2017-10-19T11:48:04.644Z,1011.27
2017-10-19T11:49:04.655Z,1011.25
2017-10-19T11:50:04.665Z,1011.26
2017-10-19T11:51:04.663Z,1011.25
2017-10-19T11:52:04.671Z,1011.23
2017-10-19T11:53:04.677Z,1011.20
2017-10-19T11:54:04.683Z,1011.19
2017-10-19T11:55:04.690Z,1011.15
2017-10-19T11:56:04.702Z,1011.13
2017-10-19T11:57:04.718Z,1011.12
2017-10-19T11:58:04.714Z,1011.09
2017-10-19T11:59:04.721Z,1011.10
2017-10-19T12:00:04.723Z,1011.07
2017-10-19T12:01:04.739Z,1011.06
2017-10-19T12:02:04.739Z,1011.07
2017-10-19T12:03:04.746Z,1011.03
2017-10-19T12:04:04.775Z,1011.03
2017-10-19T12:05:04.760Z,1011.02
2017-10-19T12:06:04.761Z,1011.00
2017-10-19T12:07:04.769Z,1010.99
2017-10-19T12:08:04.777Z,1011.01
2017-10-19T12:09:04.790Z,1010.90